Wetterstation Vordersexau
Wetterdaten: Woche 24.04.17 - 30.04.17 (KW17)
Datum Zeit Temp. A. Feuchte A. Luftdruck Regen Wind Richtung Taupunkt Windchill Windben
24.04.2017 00:00 1,3 C 71 % 1019,2 hPa 0,0 l/m 0,0 km/h O-NO -3,4 C 1,3 C 0,0 km/h
24.04.2017 01:00 0,8 C 73 % 1018,6 hPa 0,0 l/m 0,0 km/h O-SO -3,5 C 0,8 C 0,0 km/h
24.04.2017 02:00 1,8 C 74 % 1018,0 hPa 0,0 l/m 0,0 km/h SO -2,3 C 1,8 C 0,0 km/h
24.04.2017 03:00 0,6 C 75 % 1017,5 hPa 0,0 l/m 0,0 km/h SO -3,3 C 0,6 C 0,0 km/h
24.04.2017 04:00 -0,5 C 76 % 1017,2 hPa 0,0 l/m 0,0 km/h SO -4,2 C -0,5 C 0,0 km/h
24.04.2017 05:00 -1,1 C 79 % 1017,0 hPa 0,0 l/m 0,0 km/h SO -4,3 C -1,1 C 0,0 km/h
24.04.2017 06:00 -0,5 C 81 % 1016,9 hPa 0,0 l/m 0,0 km/h O-SO -3,3 C -0,5 C 0,0 km/h
24.04.2017 07:00 2,3 C 82 % 1016,7 hPa 0,0 l/m 0,0 km/h N-NO -0,4 C 2,3 C 0,0 km/h
24.04.2017 08:00 13,2 C 52 % 1016,4 hPa 0,0 l/m 0,0 km/h W-NW 3,6 C 13,2 C 0,0 km/h
24.04.2017 09:00 15,9 C 43 % 1015,8 hPa 0,0 l/m 0,0 km/h NW 3,3 C 15,9 C 0,0 km/h
24.04.2017 10:00 17,7 C 40 % 1015,3 hPa 0,0 l/m 0,0 km/h W-NW 3,9 C 17,7 C 0,0 km/h
24.04.2017 11:00 16,9 C 43 % 1014,5 hPa 0,0 l/m 0,0 km/h W-SW 4,2 C 16,9 C 0,0 km/h
24.04.2017 12:00 19,5 C 39 % 1013,7 hPa 0,0 l/m 0,0 km/h S 5,2 C 19,5 C 0,0 km/h
24.04.2017 13:00 21,1 C 38 % 1012,7 hPa 0,0 l/m 0,0 km/h S 6,2 C 21,1 C 0,0 km/h
24.04.2017 14:00 22,6 C 31 % 1011,5 hPa 0,0 l/m 0,0 km/h W-SW 4,6 C 22,6 C 0,0 km/h
24.04.2017 15:00 23,6 C 29 % 1010,6 hPa 0,0 l/m 0,0 km/h N-NO 4,5 C 23,6 C 0,0 km/h
24.04.2017 16:00 26,9 C 23 % 1009,3 hPa 0,0 l/m 0,0 km/h W-NW 4,0 C 26,9 C 0,0 km/h
24.04.2017 17:00 28,4 C 25 % 1008,4 hPa 0,0 l/m 0,0 km/h W-SW 6,5 C 28,4 C 0,0 km/h
24.04.2017 18:00 24,5 C 28 % 1007,6 hPa 0,0 l/m 8,4 km/h SW 4,8 C 24,0 C 4,7 km/h
24.04.2017 19:00 19,6 C 34 % 1007,1 hPa 0,0 l/m 1,9 km/h W-SW 3,3 C 19,6 C 1,1 km/h
24.04.2017 20:00 13,8 C 45 % 1007,1 hPa 0,0 l/m 0,0 km/h W-NW 2,1 C 13,8 C 0,0 km/h
24.04.2017 21:00 11,8 C 57 % 1007,1 hPa 0,0 l/m 0,0 km/h N 3,6 C 11,8 C 0,0 km/h
24.04.2017 22:00 10,1 C 62 % 1007,3 hPa 0,0 l/m 0,0 km/h N 3,2 C 10,1 C 0,0 km/h
24.04.2017 23:00 9,4 C 69 % 1006,8 hPa 0,0 l/m 0,0 km/h N 4,0 C 9,4 C 0,0 km/h
25.04.2017 00:00 8,6 C 71 % 1006,3 hPa 0,0 l/m 0,0 km/h N 3,6 C 8,6 C 0,0 km/h
25.04.2017 01:00 9,2 C 72 % 1006,0 hPa 0,0 l/m 0,0 km/h N 4,4 C 9,2 C 0,0 km/h
25.04.2017 02:00 9,3 C 73 % 1006,1 hPa 0,0 l/m 0,0 km/h N 4,7 C 9,3 C 0,0 km/h
25.04.2017 03:00 9,4 C 74 % 1005,7 hPa 0,0 l/m 0,0 km/h S-SO 5,0 C 9,4 C 0,0 km/h
25.04.2017 04:00 9,5 C 75 % 1005,7 hPa 0,0 l/m 0,0 km/h S-SO 5,3 C 9,5 C 0,0 km/h
25.04.2017 05:00 9,5 C 76 % 1005,5 hPa 0,0 l/m 0,0 km/h S-SO 5,5 C 9,5 C 0,0 km/h
25.04.2017 06:00 9,4 C 77 % 1005,6 hPa 0,0 l/m 0,0 km/h S-SO 5,6 C 9,4 C 0,0 km/h
25.04.2017 07:00 10,1 C 78 % 1006,2 hPa 0,0 l/m 0,0 km/h S 6,4 C 10,1 C 0,0 km/h
25.04.2017 08:00 11,9 C 74 % 1006,2 hPa 0,0 l/m 0,0 km/h W-SW 7,4 C 11,9 C 0,0 km/h
25.04.2017 09:00 14,8 C 64 % 1006,1 hPa 0,0 l/m 2,6 km/h N 8,1 C 14,8 C 1,4 km/h
25.04.2017 10:00 15,8 C 54 % 1006,2 hPa 0,0 l/m 0,0 km/h O-NO 6,5 C 15,8 C 0,0 km/h
25.04.2017 11:00 18,2 C 48 % 1005,8 hPa 0,0 l/m 0,0 km/h W-NW 7,0 C 18,2 C 0,0 km/h
25.04.2017 12:00 16,6 C 49 % 1005,6 hPa 0,0 l/m 0,0 km/h N 5,8 C 16,6 C 0,0 km/h
25.04.2017 13:00 15,8 C 48 % 1005,5 hPa 0,0 l/m 0,0 km/h N-NO 4,8 C 15,8 C 0,0 km/h
25.04.2017 14:00 12,9 C 60 % 1005,6 hPa 0,0 l/m 12,3 km/h N-NO 5,3 C 9,7 C 6,8 km/h
25.04.2017 15:00 11,1 C 69 % 1006,4 hPa 0,0 l/m 0,0 km/h N 5,6 C 11,1 C 0,0 km/h
25.04.2017 16:00 8,8 C 79 % 1006,4 hPa 1,0 l/m 10,4 km/h N 5,4 C 6,0 C 5,8 km/h
25.04.2017 17:00 7,4 C 82 % 1006,2 hPa 1,0 l/m 0,0 km/h N-NO 4,5 C 7,4 C 0,0 km/h
25.04.2017 18:00 6,8 C 83 % 1006,2 hPa 1,0 l/m 13,6 km/h N 4,1 C 2,0 C 7,6 km/h
25.04.2017 19:00 5,4 C 84 % 1006,2 hPa 0,5 l/m 2,6 km/h N 2,9 C 5,4 C 1,4 km/h
25.04.2017 20:00 4,9 C 85 % 1006,7 hPa 1,0 l/m 0,0 km/h N-NO 2,6 C 4,9 C 0,0 km/h
25.04.2017 21:00 4,8 C 85 % 1006,3 hPa 0,5 l/m 0,0 km/h NW 2,5 C 4,8 C 0,0 km/h
25.04.2017 22:00 4,4 C 85 % 1006,0 hPa 2,1 l/m 0,0 km/h N-NO 2,1 C 4,4 C 0,0 km/h
25.04.2017 23:00 4,2 C 85 % 1006,4 hPa 3,1 l/m 0,0 km/h N 1,9 C 4,2 C 0,0 km/h
26.04.2017 00:00 3,9 C 85 % 1006,9 hPa 1,0 l/m 0,0 km/h N 1,6 C 3,9 C 0,0 km/h
26.04.2017 01:00 3,8 C 85 % 1007,0 hPa 1,6 l/m 0,0 km/h N-NO 1,5 C 3,8 C 0,0 km/h
26.04.2017 02:00 3,3 C 85 % 1006,3 hPa 1,6 l/m 0,0 km/h N-NO 1,0 C 3,3 C 0,0 km/h
26.04.2017 03:00 3,3 C 85 % 1006,3 hPa 1,0 l/m 0,0 km/h N-NO 1,0 C 3,3 C 0,0 km/h
26.04.2017 04:00 3,3 C 85 % 1006,1 hPa 1,0 l/m 0,0 km/h N 1,0 C 3,3 C 0,0 km/h
26.04.2017 05:00 3,2 C 85 % 1006,3 hPa 1,6 l/m 0,0 km/h N 0,9 C 3,2 C 0,0 km/h
26.04.2017 06:00 2,9 C 85 % 1006,7 hPa 1,0 l/m 0,0 km/h N 0,6 C 2,9 C 0,0 km/h
26.04.2017 07:00 3,5 C 85 % 1006,9 hPa 0,5 l/m 0,0 km/h O-NO 1,2 C 3,5 C 0,0 km/h
26.04.2017 08:00 4,2 C 85 % 1007,3 hPa 0,0 l/m 0,0 km/h N-NO 1,9 C 4,2 C 0,0 km/h
26.04.2017 09:00 5,9 C 85 % 1007,4 hPa 0,0 l/m 0,0 km/h O-SO 3,6 C 5,9 C 0,0 km/h
26.04.2017 10:00 8,8 C 82 % 1007,7 hPa 0,0 l/m 0,0 km/h N-NO 5,9 C 8,8 C 0,0 km/h
26.04.2017 11:00 9,9 C 74 % 1008,0 hPa 0,0 l/m 0,0 km/h N-NO 5,5 C 9,9 C 0,0 km/h
26.04.2017 12:00 9,0 C 70 % 1008,3 hPa 0,0 l/m 0,0 km/h O-SO 3,8 C 9,0 C 0,0 km/h
26.04.2017 13:00 11,1 C 66 % 1008,5 hPa 0,0 l/m 1,9 km/h NO 5,0 C 11,1 C 1,1 km/h
26.04.2017 14:00 11,4 C 67 % 1008,6 hPa 0,0 l/m 0,0 km/h O-NO 5,5 C 11,4 C 0,0 km/h
26.04.2017 15:00 11,9 C 60 % 1008,6 hPa 0,0 l/m 0,0 km/h O 4,4 C 11,9 C 0,0 km/h
26.04.2017 16:00 9,2 C 67 % 1008,7 hPa 0,0 l/m 0,0 km/h N-NO 3,4 C 9,2 C 0,0 km/h
26.04.2017 17:00 9,9 C 66 % 1008,4 hPa 0,0 l/m 0,0 km/h N 3,9 C 9,9 C 0,0 km/h
26.04.2017 18:00 8,5 C 69 % 1008,5 hPa 0,0 l/m 0,0 km/h N-NO 3,1 C 8,5 C 0,0 km/h
26.04.2017 19:00 7,3 C 73 % 1009,0 hPa 0,0 l/m 0,0 km/h W 2,8 C 7,3 C 0,0 km/h
26.04.2017 20:00 6,7 C 78 % 1009,6 hPa 0,0 l/m 0,0 km/h N-NW 3,1 C 6,7 C 0,0 km/h
26.04.2017 21:00 5,8 C 82 % 1010,1 hPa 0,0 l/m 0,0 km/h NW 3,0 C 5,8 C 0,0 km/h
26.04.2017 22:00 5,3 C 83 % 1010,4 hPa 0,0 l/m 0,0 km/h N 2,7 C 5,3 C 0,0 km/h
26.04.2017 23:00 4,9 C 84 % 1010,3 hPa 0,5 l/m 2,6 km/h N 2,4 C 4,9 C 1,4 km/h
27.04.2017 00:00 4,7 C 84 % 1010,6 hPa 0,0 l/m 0,0 km/h N-NW 2,2 C 4,7 C 0,0 km/h
27.04.2017 01:00 4,5 C 85 % 1010,7 hPa 1,0 l/m 0,0 km/h N-NW 2,2 C 4,5 C 0,0 km/h
27.04.2017 02:00 4,2 C 85 % 1010,7 hPa 1,6 l/m 0,0 km/h O-SO 1,9 C 4,2 C 0,0 km/h
27.04.2017 03:00 3,9 C 85 % 1011,1 hPa 1,0 l/m 0,0 km/h W-NW 1,6 C 3,9 C 0,0 km/h
27.04.2017 04:00 3,4 C 84 % 1011,4 hPa 1,6 l/m 0,0 km/h W-NW 1,0 C 3,4 C 0,0 km/h
27.04.2017 05:00 2,5 C 84 % 1012,0 hPa 1,6 l/m 0,0 km/h W-NW 0,1 C 2,5 C 0,0 km/h
27.04.2017 06:00 2,2 C 85 % 1012,1 hPa 1,0 l/m 0,0 km/h W-NW -0,1 C 2,2 C 0,0 km/h
27.04.2017 07:00 2,4 C 85 % 1012,5 hPa 1,0 l/m 0,0 km/h W-NW 0,1 C 2,4 C 0,0 km/h
27.04.2017 08:00 2,8 C 85 % 1012,6 hPa 0,0 l/m 0,0 km/h W 0,5 C 2,8 C 0,0 km/h
27.04.2017 09:00 4,2 C 85 % 1013,0 hPa 0,0 l/m 0,0 km/h S-SW 1,9 C 4,2 C 0,0 km/h
27.04.2017 10:00 5,5 C 85 % 1013,1 hPa 0,0 l/m 0,0 km/h S 3,2 C 5,5 C 0,0 km/h
27.04.2017 11:00 6,1 C 84 % 1013,2 hPa 0,0 l/m 0,0 km/h W 3,6 C 6,1 C 0,0 km/h
27.04.2017 12:00 7,4 C 83 % 1012,7 hPa 0,0 l/m 0,0 km/h W 4,7 C 7,4 C 0,0 km/h
27.04.2017 13:00 7,0 C 82 % 1012,9 hPa 0,0 l/m 0,0 km/h W 4,1 C 7,0 C 0,0 km/h
27.04.2017 14:00 7,6 C 79 % 1012,8 hPa 1,0 l/m 0,0 km/h W-NW 4,2 C 7,6 C 0,0 km/h
27.04.2017 15:00 9,3 C 77 % 1012,2 hPa 0,0 l/m 0,0 km/h NW 5,5 C 9,3 C 0,0 km/h
27.04.2017 16:00 9,2 C 76 % 1011,8 hPa 0,0 l/m 0,0 km/h N 5,2 C 9,2 C 0,0 km/h
27.04.2017 17:00 8,3 C 76 % 1011,6 hPa 0,0 l/m 0,0 km/h W-NW 4,3 C 8,3 C 0,0 km/h
27.04.2017 18:00 7,8 C 78 % 1011,3 hPa 0,0 l/m 0,0 km/h W-NW 4,2 C 7,8 C 0,0 km/h
27.04.2017 19:00 7,1 C 81 % 1011,4 hPa 0,0 l/m 0,0 km/h N 4,1 C 7,1 C 0,0 km/h
27.04.2017 20:00 5,8 C 83 % 1012,0 hPa 1,6 l/m 0,6 km/h N-NO 3,1 C 5,8 C 0,4 km/h
27.04.2017 21:00 4,3 C 85 % 1012,4 hPa 1,0 l/m 7,1 km/h N 2,0 C 3,7 C 4,0 km/h
27.04.2017 22:00 3,8 C 85 % 1011,9 hPa 0,5 l/m 0,0 km/h N 1,5 C 3,8 C 0,0 km/h
27.04.2017 23:00 3,8 C 85 % 1011,7 hPa 0,0 l/m 0,0 km/h N 1,5 C 3,8 C 0,0 km/h
28.04.2017 00:00 3,9 C 85 % 1011,5 hPa 0,0 l/m 0,0 km/h N 1,6 C 3,9 C 0,0 km/h
28.04.2017 01:00 3,8 C 85 % 1011,0 hPa 0,0 l/m 0,0 km/h N 1,5 C 3,8 C 0,0 km/h
28.04.2017 02:00 3,9 C 85 % 1010,7 hPa 0,0 l/m 0,0 km/h N 1,6 C 3,9 C 0,0 km/h
28.04.2017 03:00 3,8 C 85 % 1010,5 hPa 0,0 l/m 0,0 km/h N 1,5 C 3,8 C 0,0 km/h
28.04.2017 04:00 3,8 C 85 % 1010,6 hPa 0,0 l/m 0,0 km/h N 1,5 C 3,8 C 0,0 km/h
28.04.2017 05:00 3,9 C 84 % 1010,8 hPa 0,0 l/m 0,0 km/h N 1,4 C 3,9 C 0,0 km/h
28.04.2017 06:00 4,1 C 84 % 1010,9 hPa 0,0 l/m 0,0 km/h N 1,6 C 4,1 C 0,0 km/h
28.04.2017 07:00 5,1 C 83 % 1011,3 hPa 0,0 l/m 0,0 km/h N 2,5 C 5,1 C 0,0 km/h
28.04.2017 08:00 6,4 C 84 % 1011,6 hPa 0,0 l/m 0,0 km/h W 3,9 C 6,4 C 0,0 km/h
28.04.2017 09:00 8,8 C 78 % 1012,0 hPa 0,0 l/m 0,0 km/h N-NW 5,2 C 8,8 C 0,0 km/h
28.04.2017 10:00 9,8 C 72 % 1012,4 hPa 0,0 l/m 0,0 km/h S 5,0 C 9,8 C 0,0 km/h
28.04.2017 11:00 13,5 C 64 % 1012,1 hPa 0,0 l/m 0,0 km/h N 6,8 C 13,5 C 0,0 km/h
28.04.2017 12:00 12,3 C 53 % 1011,9 hPa 0,0 l/m 2,6 km/h W 3,0 C 12,3 C 1,4 km/h
28.04.2017 13:00 12,3 C 55 % 1012,4 hPa 0,0 l/m 20,7 km/h NO 3,5 C 6,1 C 11,5 km/h
28.04.2017 14:00 12,7 C 51 % 1013,3 hPa 0,0 l/m 14,9 km/h N-NO 2,8 C 8,4 C 8,3 km/h
28.04.2017 15:00 17,4 C 43 % 1013,1 hPa 0,0 l/m 0,0 km/h SW 4,7 C 17,4 C 0,0 km/h
28.04.2017 16:00 12,5 C 54 % 1013,4 hPa 0,0 l/m 0,0 km/h S 3,5 C 12,5 C 0,0 km/h
28.04.2017 17:00 14,0 C 45 % 1013,5 hPa 0,0 l/m 0,0 km/h W 2,3 C 14,0 C 0,0 km/h
28.04.2017 18:00 11,4 C 50 % 1013,5 hPa 0,0 l/m 0,0 km/h W-SW 1,4 C 11,4 C 0,0 km/h
28.04.2017 19:00 10,4 C 57 % 1013,9 hPa 0,0 l/m 0,0 km/h S-SW 2,3 C 10,4 C 0,0 km/h
28.04.2017 20:00 5,6 C 66 % 1014,7 hPa 0,0 l/m 0,0 km/h S-SW -0,2 C 5,6 C 0,0 km/h
28.04.2017 21:00 4,4 C 74 % 1015,2 hPa 0,0 l/m 0,0 km/h S 0,2 C 4,4 C 0,0 km/h
28.04.2017 22:00 3,1 C 78 % 1015,6 hPa 0,0 l/m 0,0 km/h S -0,4 C 3,1 C 0,0 km/h
28.04.2017 23:00 1,8 C 81 % 1016,1 hPa 0,0 l/m 0,0 km/h S -1,1 C 1,8 C 0,0 km/h
29.04.2017 00:00 1,2 C 83 % 1015,9 hPa 0,0 l/m 0,0 km/h SO -1,4 C 1,2 C 0,0 km/h
29.04.2017 01:00 1,0 C 84 % 1016,0 hPa 0,0 l/m 0,0 km/h O-SO -1,4 C 1,0 C 0,0 km/h
29.04.2017 02:00 1,9 C 85 % 1016,0 hPa 0,0 l/m 0,0 km/h O -0,3 C 1,9 C 0,0 km/h
29.04.2017 03:00 2,6 C 85 % 1016,0 hPa 0,0 l/m 0,0 km/h O-SO 0,3 C 2,6 C 0,0 km/h
29.04.2017 04:00 2,9 C 85 % 1016,2 hPa 0,0 l/m 0,0 km/h O-SO 0,6 C 2,9 C 0,0 km/h
29.04.2017 05:00 1,6 C 85 % 1015,9 hPa 0,0 l/m 0,0 km/h O-SO -0,6 C 1,6 C 0,0 km/h
29.04.2017 06:00 1,2 C 85 % 1015,8 hPa 0,0 l/m 0,0 km/h O-SO -1,0 C 1,2 C 0,0 km/h
29.04.2017 07:00 5,2 C 78 % 1016,3 hPa 0,0 l/m 0,0 km/h O-SO 1,7 C 5,2 C 0,0 km/h
29.04.2017 08:00 13,5 C 69 % 1016,1 hPa 0,0 l/m 0,0 km/h NW 7,9 C 13,5 C 0,0 km/h
29.04.2017 09:00 16,9 C 51 % 1015,7 hPa 0,0 l/m 0,0 km/h W 6,7 C 16,9 C 0,0 km/h
29.04.2017 10:00 17,8 C 46 % 1015,5 hPa 0,0 l/m 0,0 km/h W-SW 6,0 C 17,8 C 0,0 km/h
29.04.2017 11:00 16,9 C 45 % 1015,3 hPa 0,0 l/m 2,6 km/h N-NO 4,9 C 16,9 C 1,4 km/h
29.04.2017 12:00 18,6 C 42 % 1014,5 hPa 0,0 l/m 0,0 km/h W 5,4 C 18,6 C 0,0 km/h
29.04.2017 13:00 19,7 C 39 % 1014,0 hPa 0,0 l/m 2,6 km/h SO 5,4 C 19,7 C 1,4 km/h
29.04.2017 14:00 20,6 C 35 % 1013,5 hPa 0,0 l/m 0,0 km/h N-NO 4,6 C 20,6 C 0,0 km/h
29.04.2017 15:00 17,6 C 35 % 1013,2 hPa 0,0 l/m 0,0 km/h N-NW 2,0 C 17,6 C 0,0 km/h
29.04.2017 16:00 23,8 C 28 % 1012,5 hPa 0,0 l/m 0,0 km/h W 4,2 C 23,8 C 0,0 km/h
29.04.2017 17:00 24,4 C 29 % 1012,3 hPa 0,0 l/m 0,0 km/h N 5,2 C 24,4 C 0,0 km/h
29.04.2017 18:00 24,1 C 27 % 1011,6 hPa 0,0 l/m 0,0 km/h N 3,9 C 24,1 C 0,0 km/h
29.04.2017 19:00 15,7 C 38 % 1011,4 hPa 0,0 l/m 0,0 km/h O-SO 1,4 C 15,7 C 0,0 km/h
29.04.2017 20:00 10,3 C 55 % 1011,8 hPa 0,0 l/m 0,0 km/h N-NO 1,7 C 10,3 C 0,0 km/h
29.04.2017 21:00 8,7 C 59 % 1012,2 hPa 0,0 l/m 0,0 km/h N-NO 1,1 C 8,7 C 0,0 km/h
29.04.2017 22:00 7,4 C 63 % 1011,8 hPa 0,0 l/m 0,0 km/h N-NO 0,8 C 7,4 C 0,0 km/h
29.04.2017 23:00 6,5 C 66 % 1011,8 hPa 0,0 l/m 0,0 km/h N-NO 0,6 C 6,5 C 0,0 km/h
30.04.2017 00:00 5,8 C 68 % 1011,7 hPa 0,0 l/m 0,0 km/h N-NO 0,4 C 5,8 C 0,0 km/h
30.04.2017 01:00 5,1 C 67 % 1011,2 hPa 0,0 l/m 0,0 km/h O -0,5 C 5,1 C 0,0 km/h
30.04.2017 02:00 2,9 C 73 % 1011,2 hPa 0,0 l/m 0,0 km/h NO -1,5 C 2,9 C 0,0 km/h
30.04.2017 03:00 1,9 C 77 % 1011,2 hPa 0,0 l/m 0,0 km/h O -1,7 C 1,9 C 0,0 km/h
30.04.2017 04:00 0,9 C 77 % 1011,1 hPa 0,0 l/m 0,0 km/h O -2,7 C 0,9 C 0,0 km/h
30.04.2017 05:00 0,4 C 81 % 1011,2 hPa 0,0 l/m 0,0 km/h O -2,5 C 0,4 C 0,0 km/h
30.04.2017 06:00 1,5 C 81 % 1010,8 hPa 0,0 l/m 0,0 km/h O-SO -1,4 C 1,5 C 0,0 km/h
30.04.2017 07:00 8,9 C 77 % 1010,9 hPa 0,0 l/m 0,0 km/h O-SO 5,1 C 8,9 C 0,0 km/h
30.04.2017 08:00 16,6 C 49 % 1010,5 hPa 0,0 l/m 0,0 km/h W-NW 5,8 C 16,6 C 0,0 km/h
30.04.2017 09:00 17,9 C 43 % 1010,0 hPa 0,0 l/m 0,0 km/h W-SW 5,1 C 17,9 C 0,0 km/h
30.04.2017 10:00 19,1 C 42 % 1009,0 hPa 0,0 l/m 0,0 km/h W 5,9 C 19,1 C 0,0 km/h
30.04.2017 11:00 18,6 C 47 % 1008,0 hPa 0,0 l/m 0,0 km/h W 7,1 C 18,6 C 0,0 km/h
30.04.2017 12:00 20,4 C 42 % 1007,0 hPa 0,0 l/m 9,7 km/h W 7,1 C 19,2 C 5,4 km/h
30.04.2017 13:00 21,6 C 40 % 1006,1 hPa 0,0 l/m 6,5 km/h W 7,4 C 21,6 C 3,6 km/h
30.04.2017 14:00 23,5 C 36 % 1005,3 hPa 0,0 l/m 0,0 km/h S-SW 7,6 C 23,5 C 0,0 km/h
30.04.2017 15:00 24,3 C 35 % 1004,2 hPa 0,0 l/m 0,0 km/h W 7,8 C 24,3 C 0,0 km/h
30.04.2017 16:00 27,6 C 29 % 1003,1 hPa 0,0 l/m 0,0 km/h W-NW 7,9 C 27,6 C 0,0 km/h
30.04.2017 17:00 28,8 C 26 % 1002,4 hPa 0,0 l/m 2,6 km/h O-SO 7,4 C 28,8 C 1,4 km/h
30.04.2017 18:00 28,4 C 26 % 1001,9 hPa 0,0 l/m 0,6 km/h O-SO 7,0 C 28,4 C 0,4 km/h
30.04.2017 19:00 17,6 C 35 % 1002,2 hPa 0,0 l/m 14,3 km/h O-NO 2,0 C 14,5 C 7,9 km/h
30.04.2017 20:00 15,0 C 38 % 1002,4 hPa 0,0 l/m 0,0 km/h N-NO 0,8 C 15,0 C 0,0 km/h
30.04.2017 21:00 12,2 C 48 % 1002,6 hPa 0,0 l/m 0,0 km/h O-NO 1,5 C 12,2 C 0,0 km/h
30.04.2017 22:00 11,4 C 51 % 1002,3 hPa 0,0 l/m 0,0 km/h N 1,6 C 11,4 C 0,0 km/h
30.04.2017 23:00 14,9 C 44 % 1002,3 hPa 0,0 l/m 0,0 km/h N 2,8 C 14,9 C 0,0 km/h
Min-Datum _ 24.04.17 24.04.17 30.04.17 - 24.04.17 - 24.04.17 24.04.17 24.04.17
_ Min-Zeit 05:57 16:57 18:57 - 00:57 - 05:57 05:57 00:57
Minimum _ -1,1 C 23 % 1001,9 hPa - 0,0 km/h - -4,3 C -1,1 C 0,0 km/h
Max-Datum _ 30.04.17 25.04.17 24.04.17 25.04.17 28.04.17 - 25.04.17 30.04.17 28.04.17
_ Max-Zeit 17:57 20:57 00:57 23:57 13:57 - 09:57 17:57 13:57
Maximum _ 28,8 C 85 % 1019,2 hPa 3,1 l/m 20,7 km/h
NO
- 8,1 C 28,8 C 11,5 km/h
NO
Durchschnitt _ 9,7 C 66 % 1010,4 hPa #33,2 l/m 0,8 km/h N 2,9 C 9,6 C 0,5 km/h
www.sexauwetter.de